createdAt,value
2023-03-02T00:03:49.053Z,4.42
2023-03-02T00:08:52.729Z,4.11
2023-03-02T00:13:55.566Z,3.87
2023-03-02T00:18:58.245Z,5.11
2023-03-02T00:24:01.179Z,9.06
2023-03-02T00:29:04.313Z,9.13
2023-03-02T00:34:07.284Z,7.17
2023-03-02T00:39:09.965Z,6.09
2023-03-02T00:44:17.835Z,5.39
2023-03-02T00:49:20.701Z,4.85
2023-03-02T00:54:23.438Z,4.46
2023-03-02T00:59:30.531Z,4.13
2023-03-02T01:04:40.384Z,3.91
2023-03-02T01:09:44.734Z,5.17
2023-03-02T01:14:48.986Z,9.06
2023-03-02T01:19:53.073Z,9.39
2023-03-02T01:24:55.825Z,7.23
2023-03-02T01:29:58.567Z,6.05
2023-03-02T01:35:01.248Z,5.35
2023-03-02T01:40:06.639Z,4.85
2023-03-02T01:45:49.073Z,4.43
2023-03-02T01:50:53.324Z,4.04
2023-03-02T01:55:57.638Z,3.81
2023-03-02T02:01:01.047Z,5.05
2023-03-02T02:06:18.106Z,8.82
2023-03-02T02:11:21.095Z,8.10
2023-03-02T02:16:24.110Z,6.28
2023-03-02T02:21:28.610Z,5.28
2023-03-02T02:26:41.811Z,4.62
2023-03-02T02:31:56.627Z,4.08
2023-03-02T02:37:07.350Z,3.71
2023-03-02T02:42:18.132Z,3.38
2023-03-02T02:47:22.817Z,3.12
2023-03-02T02:52:28.418Z,4.38
2023-03-02T02:57:31.446Z,8.31
2023-03-02T03:02:39.982Z,8.80
2023-03-02T03:07:43.040Z,6.62
2023-03-02T03:12:47.456Z,5.38
2023-03-02T03:17:58.024Z,4.63
2023-03-02T03:23:01.033Z,4.04
2023-03-02T03:28:04.249Z,3.60
2023-03-02T03:33:11.132Z,3.27
2023-03-02T03:38:13.805Z,3.00
2023-03-02T03:43:16.645Z,2.73
2023-03-02T03:48:19.371Z,4.02
2023-03-02T03:53:22.034Z,7.98
2023-03-02T03:58:25.734Z,8.65
2023-03-02T04:03:28.957Z,6.45
2023-03-02T04:08:31.636Z,5.18
2023-03-02T04:13:34.361Z,4.33
2023-03-02T04:18:37.064Z,3.70
2023-03-02T04:23:39.769Z,3.19
2023-03-02T04:28:42.497Z,2.86
2023-03-02T04:33:45.262Z,2.62
2023-03-02T04:38:48.361Z,3.89
2023-03-02T04:43:52.610Z,7.78
2023-03-02T04:48:55.814Z,8.59
2023-03-02T04:54:02.353Z,6.36
2023-03-02T04:59:05.083Z,5.03
2023-03-02T05:04:07.995Z,4.23
2023-03-02T05:09:11.196Z,3.65
2023-03-02T05:14:14.086Z,4.72
2023-03-02T05:19:17.608Z,8.28
2023-03-02T05:24:20.452Z,8.73
2023-03-02T05:29:23.121Z,6.28
2023-03-02T05:34:25.925Z,4.82
2023-03-02T05:39:29.171Z,3.98
2023-03-02T05:44:32.368Z,3.34
2023-03-02T05:49:35.169Z,2.85
2023-03-02T05:54:37.819Z,3.90
2023-03-02T05:59:40.851Z,7.55
2023-03-02T06:04:44.502Z,9.15
2023-03-02T06:09:47.195Z,7.40
2023-03-02T06:14:50.843Z,5.48
2023-03-02T06:19:53.604Z,4.49
2023-03-02T06:24:56.351Z,3.82
2023-03-02T06:29:59.035Z,4.91
2023-03-02T06:35:03.940Z,8.18
2023-03-02T06:40:11.620Z,8.53
2023-03-02T06:45:16.415Z,6.21
2023-03-02T06:50:20.045Z,4.83
2023-03-02T06:55:23.092Z,4.00
2023-03-02T07:00:28.486Z,4.15
2023-03-02T07:05:32.449Z,7.46
2023-03-02T07:10:37.467Z,8.36
2023-03-02T07:15:40.434Z,6.04
2023-03-02T07:20:43.190Z,4.69
2023-03-02T07:25:45.825Z,3.95
2023-03-02T07:30:48.652Z,5.72
2023-03-02T07:35:51.738Z,8.80
2023-03-02T07:40:54.841Z,8.42
2023-03-02T07:45:59.780Z,6.10
2023-03-02T07:51:05.070Z,4.76
2023-03-02T07:56:10.233Z,3.95
2023-03-02T08:01:13.076Z,5.07
2023-03-02T08:06:15.876Z,8.67
2023-03-02T08:11:20.226Z,9.07
2023-03-02T08:16:25.124Z,6.69
2023-03-02T08:21:28.603Z,5.07
2023-03-02T08:26:31.669Z,6.10
2023-03-02T08:31:35.081Z,9.02
2023-03-02T08:36:39.289Z,8.27
2023-03-02T08:41:42.052Z,6.10
2023-03-02T08:46:44.797Z,4.93
2023-03-02T08:51:49.099Z,4.30
2023-03-02T08:56:51.894Z,4.23
2023-03-02T09:01:54.724Z,7.54
2023-03-02T09:06:57.462Z,8.50
2023-03-02T09:12:00.428Z,6.39
2023-03-02T09:17:03.752Z,5.13
2023-03-02T09:22:06.690Z,5.72
2023-03-02T09:27:09.520Z,7.33
2023-03-02T09:32:14.112Z,5.77
2023-03-02T09:37:18.960Z,5.21
2023-03-02T09:42:43.889Z,7.95
2023-03-02T09:48:05.445Z,8.67
2023-03-02T09:53:35.129Z,7.06
2023-03-02T09:58:40.381Z,6.35
2023-03-02T10:04:03.539Z,7.13
2023-03-02T10:09:10.902Z,10.50
2023-03-02T10:14:34.093Z,9.28
2023-03-02T10:19:44.282Z,8.03
2023-03-02T10:25:10.045Z,7.39
2023-03-02T10:30:27.891Z,7.04
2023-03-02T10:35:32.165Z,7.20
2023-03-02T10:41:03.087Z,10.37
2023-03-02T10:46:09.813Z,11.23
2023-03-02T10:51:32.541Z,9.53
2023-03-02T10:56:36.144Z,8.71
2023-03-02T11:01:39.086Z,9.39
2023-03-02T11:06:42.530Z,10.87
2023-03-02T11:11:54.593Z,12.37
2023-03-02T11:17:03.346Z,13.74
2023-03-02T11:22:12.322Z,14.85
2023-03-02T11:27:25.393Z,15.80
2023-03-02T11:32:44.661Z,16.93
2023-03-02T11:37:53.703Z,17.94
2023-03-02T11:42:59.501Z,19.05
2023-03-02T11:48:27.121Z,19.81
2023-03-02T11:53:39.642Z,20.24
2023-03-02T11:58:44.082Z,20.93
2023-03-02T12:03:47.964Z,21.48
2023-03-02T12:09:06.395Z,21.96
2023-03-02T12:14:40.474Z,22.65
2023-03-02T12:19:45.390Z,23.19
2023-03-02T12:25:02.174Z,23.58
2023-03-02T12:30:08.219Z,23.97
2023-03-02T12:35:13.935Z,24.72
2023-03-02T12:40:58.718Z,24.96
2023-03-02T12:46:20.288Z,25.27
2023-03-02T12:51:34.209Z,25.23
2023-03-02T12:56:38.014Z,25.48
2023-03-02T13:01:45.803Z,25.55
2023-03-02T13:06:48.705Z,24.70
2023-03-02T13:11:54.860Z,23.83
2023-03-02T13:17:03.021Z,22.76
2023-03-02T13:22:08.850Z,21.27
2023-03-02T13:27:20.885Z,19.64
2023-03-02T13:32:35.396Z,18.26
2023-03-02T13:37:44.169Z,17.78
2023-03-02T13:42:48.761Z,17.42
2023-03-02T13:47:53.164Z,16.58
2023-03-02T13:52:58.537Z,16.29
2023-03-02T13:58:06.778Z,15.44
2023-03-02T14:03:32.800Z,15.46
2023-03-02T14:08:35.594Z,15.64
2023-03-02T14:13:47.260Z,14.71
2023-03-02T14:18:52.752Z,14.15
2023-03-02T14:23:56.146Z,13.60
2023-03-02T14:29:05.827Z,12.92
2023-03-02T14:34:18.625Z,12.40
2023-03-02T14:39:44.152Z,11.90
2023-03-02T14:44:49.114Z,11.46
2023-03-02T14:49:53.698Z,11.30
2023-03-02T14:55:00.850Z,11.00
2023-03-02T15:00:06.860Z,10.85
2023-03-02T15:05:10.166Z,10.95
2023-03-02T15:10:17.294Z,11.09
2023-03-02T15:15:22.439Z,11.43
2023-03-02T15:20:25.513Z,12.85
2023-03-02T15:25:28.837Z,14.17
2023-03-02T15:30:31.753Z,15.62
2023-03-02T15:35:39.154Z,16.88
2023-03-02T15:40:41.906Z,16.85
2023-03-02T15:45:49.033Z,16.13
2023-03-02T15:50:59.672Z,14.95
2023-03-02T15:56:12.331Z,13.77
2023-03-02T16:01:16.344Z,12.58
2023-03-02T16:06:19.205Z,11.75
2023-03-02T16:11:23.494Z,10.91
2023-03-02T16:16:28.028Z,10.22
2023-03-02T16:21:30.777Z,9.64
2023-03-02T16:26:36.540Z,9.17
2023-03-02T16:31:40.740Z,8.73
2023-03-02T16:36:44.715Z,8.36
2023-03-02T16:41:47.562Z,8.06
2023-03-02T16:46:50.615Z,7.84
2023-03-02T16:51:57.914Z,7.66
2023-03-02T16:57:00.831Z,7.46
2023-03-02T17:02:03.686Z,7.28
2023-03-02T17:07:07.042Z,7.08
2023-03-02T17:12:09.922Z,6.88
2023-03-02T17:17:12.668Z,6.68
2023-03-02T17:22:15.920Z,6.50
2023-03-02T17:27:24.869Z,6.35
2023-03-02T17:32:28.465Z,6.18
2023-03-02T17:37:33.120Z,6.03
2023-03-02T17:42:36.346Z,5.92
2023-03-02T17:47:40.127Z,5.79
2023-03-02T17:52:43.343Z,5.69
2023-03-02T17:57:46.229Z,5.52
2023-03-02T18:02:50.138Z,5.32
2023-03-02T18:07:54.666Z,5.13
2023-03-02T18:12:57.443Z,4.90
2023-03-02T18:18:00.294Z,4.71
2023-03-02T18:23:03.169Z,4.49
2023-03-02T18:28:06.293Z,4.28
2023-03-02T18:33:09.692Z,4.12
2023-03-02T18:38:12.546Z,4.01
2023-03-02T18:43:15.236Z,3.91
2023-03-02T18:48:18.022Z,3.80
2023-03-02T18:53:21.498Z,3.70
2023-03-02T18:58:25.558Z,3.59
2023-03-02T19:03:30.127Z,3.43
2023-03-02T19:08:33.874Z,3.22
2023-03-02T19:13:37.420Z,3.06
2023-03-02T19:18:40.841Z,2.87
2023-03-02T19:23:45.549Z,2.75
2023-03-02T19:28:49.576Z,2.70
2023-03-02T19:33:52.415Z,2.68
2023-03-02T19:38:55.145Z,2.65
2023-03-02T19:43:58.510Z,2.60
2023-03-02T19:49:01.333Z,2.56
2023-03-02T19:54:04.285Z,2.47
2023-03-02T19:59:07.905Z,2.41
2023-03-02T20:04:10.790Z,2.37
2023-03-02T20:09:19.581Z,2.34
2023-03-02T20:14:33.421Z,2.30
2023-03-02T20:19:36.962Z,2.27
2023-03-02T20:24:40.297Z,2.24
2023-03-02T20:29:43.568Z,2.17
2023-03-02T20:34:46.358Z,2.07
2023-03-02T20:39:49.678Z,1.92
2023-03-02T20:44:52.511Z,3.18
2023-03-02T20:49:55.948Z,7.09
2023-03-02T20:54:58.768Z,9.03
2023-03-02T21:00:02.497Z,7.62
2023-03-02T21:05:05.723Z,5.60
2023-03-02T21:10:13.454Z,4.52
2023-03-02T21:15:17.563Z,3.75
2023-03-02T21:20:22.894Z,3.19
2023-03-02T21:25:26.439Z,2.71
2023-03-02T21:30:35.753Z,2.32
2023-03-02T21:35:38.610Z,2.02
2023-03-02T21:40:45.942Z,1.83
2023-03-02T21:45:49.014Z,1.64
2023-03-02T21:50:51.705Z,1.49
2023-03-02T21:55:55.130Z,2.62
2023-03-02T22:00:57.949Z,6.49
2023-03-02T22:06:00.661Z,7.45
2023-03-02T22:11:03.815Z,5.26
2023-03-02T22:16:15.917Z,3.87
2023-03-02T22:21:53.513Z,3.04
2023-03-02T22:27:19.120Z,2.40
2023-03-02T22:32:36.556Z,2.00
2023-03-02T22:37:39.841Z,1.71
2023-03-02T22:42:43.117Z,1.50
2023-03-02T22:47:54.900Z,1.32
2023-03-02T22:53:19.827Z,1.17
2023-03-02T22:58:32.597Z,2.63
2023-03-02T23:03:43.804Z,6.35
2023-03-02T23:08:46.663Z,7.87
2023-03-02T23:13:52.301Z,5.84
2023-03-02T23:18:59.395Z,4.02
2023-03-02T23:24:02.598Z,2.98
2023-03-02T23:29:06.365Z,2.20
2023-03-02T23:34:09.431Z,1.63
2023-03-02T23:39:12.680Z,1.23
2023-03-02T23:44:15.612Z,0.90
2023-03-02T23:49:18.867Z,2.00
2023-03-02T23:54:23.057Z,5.80
2023-03-02T23:59:26.782Z,7.29
